Time;durP1;ratioP1;P1;durP2;ratioP2;P2;SDS_P1;SDS_P2;PMS_P1;PMS_P2;Temp;Humidity;BMP_temperature;BMP_pressure;BME280_temperature;BME280_humidity;BME280_pressure;Samples;Min_cycle;Max_cycle;Signal;HPM_P1;HPM_P2
2023/04/26 05:00:38;;;;;;;6.20;5.40;;;8.10;97.20;;;;;;1747985;28;20285;-66
2023/04/26 05:01:30;;;;;;;6.45;5.45;;;8.10;97.20;;;;;;1747972;28;20661;-66
2023/04/26 05:02:21;;;;;;;8.20;5.63;;;8.10;97.20;;;;;;1747941;28;20561;-65
2023/04/26 05:03:13;;;;;;;6.53;5.35;;;8.20;97.20;;;;;;1747398;28;20203;-66
2023/04/26 05:04:05;;;;;;;6.22;5.63;;;8.20;97.20;;;;;;1747903;28;20212;-67
2023/04/26 05:04:56;;;;;;;7.47;6.15;;;8.20;97.20;;;;;;1747896;28;20202;-67
2023/04/26 05:05:47;;;;;;;6.63;5.30;;;8.20;97.20;;;;;;1748050;28;20199;-66
2023/04/26 05:06:38;;;;;;;6.72;5.97;;;8.20;97.20;;;;;;1747565;28;20213;-66
2023/04/26 05:07:30;;;;;;;7.90;5.80;;;8.20;97.20;;;;;;1747932;28;20197;-66
2023/04/26 05:08:21;;;;;;;19.65;14.35;;;8.20;97.20;;;;;;1747867;28;20206;-66
2023/04/26 05:09:13;;;;;;;27.03;18.80;;;8.20;97.20;;;;;;1747994;28;20202;-68
2023/04/26 05:10:04;;;;;;;53.63;34.90;;;8.20;97.20;;;;;;1747847;28;20198;-66
2023/04/26 05:10:56;;;;;;;46.92;29.13;;;8.20;97.20;;;;;;1747833;28;20222;-66
2023/04/26 05:11:47;;;;;;;60.55;36.38;;;8.20;97.20;;;;;;1748031;28;20211;-66
2023/04/26 05:12:38;;;;;;;67.07;40.27;;;8.30;97.20;;;;;;1747897;28;20209;-65
2023/04/26 05:13:29;;;;;;;72.60;42.42;;;8.30;97.20;;;;;;1747970;28;20202;-65
2023/04/26 05:14:21;;;;;;;75.53;43.63;;;8.30;97.20;;;;;;1747984;28;20198;-67
2023/04/26 05:15:12;;;;;;;64.60;41.35;;;8.30;97.20;;;;;;1747936;28;20206;-66
2023/04/26 05:16:05;;;;;;;76.40;46.17;;;8.30;97.20;;;;;;1747510;28;20201;-67
2023/04/26 05:16:56;;;;;;;72.88;45.70;;;8.30;97.20;;;;;;1740568;28;20453;-67
2023/04/26 05:17:48;;;;;;;74.23;46.03;;;8.40;97.20;;;;;;1743376;28;20229;-66
2023/04/26 05:18:38;;;;;;;74.97;42.70;;;8.40;97.20;;;;;;1747888;28;20202;-67
2023/04/26 05:19:30;;;;;;;74.83;41.83;;;8.40;97.20;;;;;;1747845;28;20195;-66
2023/04/26 05:20:21;;;;;;;70.93;36.13;;;8.40;97.20;;;;;;1747807;28;20206;-66
2023/04/26 05:21:13;;;;;;;72.40;38.20;;;8.40;97.20;;;;;;1747935;28;20242;-66
2023/04/26 05:22:04;;;;;;;83.10;41.33;;;8.40;97.20;;;;;;1747828;28;20199;-66
2023/04/26 05:22:55;;;;;;;70.37;39.83;;;8.40;97.20;;;;;;1747863;28;20208;-67
2023/04/26 05:23:46;;;;;;;72.32;39.28;;;8.40;97.20;;;;;;1747932;28;20198;-66
2023/04/26 05:24:38;;;;;;;63.07;36.63;;;8.40;97.20;;;;;;1747799;28;20194;-66
2023/04/26 05:25:28;;;;;;;51.78;31.90;;;8.40;97.20;;;;;;1747884;28;20213;-67
2023/04/26 05:26:20;;;;;;;44.93;28.83;;;8.50;97.20;;;;;;1747577;28;20209;-66
2023/04/26 05:27:11;;;;;;;41.03;25.58;;;8.50;97.20;;;;;;1747842;28;20210;-66
2023/04/26 05:28:02;;;;;;;29.80;20.50;;;8.50;97.20;;;;;;1747896;28;20199;-66
2023/04/26 05:28:53;;;;;;;28.73;20.77;;;8.50;97.20;;;;;;1747819;28;20594;-66
2023/04/26 05:29:45;;;;;;;26.53;18.50;;;8.60;97.20;;;;;;1747946;28;20770;-65
2023/04/26 05:30:36;;;;;;;20.42;15.10;;;8.60;97.20;;;;;;1746680;28;20736;-65
2023/04/26 05:31:30;;;;;;;14.57;12.25;;;8.70;97.20;;;;;;1747942;28;20252;-66
2023/04/26 05:32:21;;;;;;;14.48;9.85;;;8.70;97.20;;;;;;1747609;28;20198;-66
2023/04/26 05:33:12;;;;;;;9.13;7.53;;;8.80;97.20;;;;;;1747857;28;20204;-66
2023/04/26 05:34:03;;;;;;;9.73;7.25;;;8.80;97.20;;;;;;1747776;28;20213;-66
2023/04/26 05:34:55;;;;;;;7.73;6.93;;;8.90;97.20;;;;;;1747850;28;20195;-66
2023/04/26 05:35:46;;;;;;;9.70;7.90;;;8.90;97.20;;;;;;1747787;28;20198;-66
2023/04/26 05:36:37;;;;;;;8.13;7.13;;;9.00;97.20;;;;;;1747530;28;20198;-67
2023/04/26 05:37:28;;;;;;;8.80;7.68;;;9.00;97.20;;;;;;1747803;28;20214;-66
2023/04/26 05:38:20;;;;;;;10.13;8.40;;;9.10;97.20;;;;;;1747906;28;20203;-66
2023/04/26 05:39:11;;;;;;;10.43;7.50;;;9.10;97.20;;;;;;1747845;28;20575;-66
2023/04/26 05:40:04;;;;;;;9.30;8.03;;;9.10;97.20;;;;;;1747861;28;20555;-66
2023/04/26 05:40:55;;;;;;;9.30;7.93;;;9.20;97.20;;;;;;1747746;28;20227;-68
2023/04/26 05:41:46;;;;;;;9.20;8.00;;;9.30;97.20;;;;;;1747848;28;20284;-66
2023/04/26 05:42:37;;;;;;;9.05;8.15;;;9.30;97.20;;;;;;1747831;28;20563;-66
2023/04/26 05:43:29;;;;;;;12.47;8.20;;;9.30;97.20;;;;;;1747925;28;20198;-65
2023/04/26 05:44:20;;;;;;;12.18;9.32;;;9.40;97.20;;;;;;1747877;28;20217;-66
2023/04/26 05:45:12;;;;;;;8.03;7.23;;;9.40;97.20;;;;;;1747831;28;20202;-66
2023/04/26 05:46:02;;;;;;;8.60;7.43;;;9.50;97.20;;;;;;1747814;28;20225;-66
2023/04/26 05:46:55;;;;;;;9.50;7.93;;;9.50;97.20;;;;;;1746876;28;20224;-66
2023/04/26 05:47:46;;;;;;;9.63;7.55;;;9.50;97.20;;;;;;1747790;28;20199;-66
2023/04/26 05:48:38;;;;;;;8.90;8.10;;;9.50;97.20;;;;;;1747824;28;20198;-67
2023/04/26 05:49:29;;;;;;;9.23;8.25;;;9.50;97.20;;;;;;1747893;28;20891;-65
2023/04/26 05:50:20;;;;;;;8.90;8.00;;;9.50;97.20;;;;;;1747830;28;20206;-67
2023/04/26 05:51:11;;;;;;;9.63;8.32;;;9.60;97.20;;;;;;1747753;28;20202;-66
2023/04/26 05:52:03;;;;;;;10.10;8.37;;;9.60;97.20;;;;;;1747466;28;20197;-66
2023/04/26 05:52:54;;;;;;;10.10;8.35;;;9.60;97.20;;;;;;1747784;28;20263;-66
2023/04/26 05:53:45;;;;;;;10.90;7.80;;;9.70;97.20;;;;;;1747805;28;20194;-66
2023/04/26 05:54:36;;;;;;;15.30;9.13;;;9.70;97.20;;;;;;1747786;28;20213;-66
2023/04/26 05:55:28;;;;;;;12.03;8.53;;;9.70;97.20;;;;;;1747868;28;20286;-66
2023/04/26 05:56:19;;;;;;;9.48;8.18;;;9.70;97.20;;;;;;1747421;28;20195;-64
2023/04/26 05:57:10;;;;;;;12.93;8.60;;;9.80;97.20;;;;;;1747739;28;20206;-67
2023/04/26 05:58:01;;;;;;;10.70;8.10;;;9.80;97.20;;;;;;1747622;28;20523;-65
2023/04/26 05:58:53;;;;;;;24.33;9.30;;;9.80;97.20;;;;;;1747697;28;20213;-66
2023/04/26 05:59:44;;;;;;;12.27;8.45;;;9.80;97.20;;;;;;1747865;28;20749;-66
2023/04/26 06:00:36;;;;;;;15.20;8.60;;;9.80;97.20;;;;;;1747671;28;20587;-66
2023/04/26 06:01:27;;;;;;;9.52;8.00;;;9.80;97.20;;;;;;1747766;28;20808;-66
2023/04/26 06:02:19;;;;;;;12.15;8.45;;;9.90;97.20;;;;;;1747681;28;20199;-65
2023/04/26 06:03:11;;;;;;;12.52;8.63;;;9.90;97.20;;;;;;1747788;28;20229;-65
2023/04/26 06:04:02;;;;;;;15.10;8.18;;;9.90;97.20;;;;;;1747728;28;20205;-66
2023/04/26 06:04:54;;;;;;;9.93;8.70;;;10.00;97.20;;;;;;1747667;28;20691;-65
2023/04/26 06:05:45;;;;;;;9.30;8.40;;;10.00;97.20;;;;;;1747683;28;20238;-65
2023/04/26 06:06:37;;;;;;;11.87;8.00;;;10.10;97.20;;;;;;1747316;28;20205;-68
2023/04/26 06:07:27;;;;;;;8.50;7.65;;;10.10;97.20;;;;;;1747659;28;20511;-66
2023/04/26 06:08:20;;;;;;;10.77;8.23;;;10.20;97.20;;;;;;1747484;28;20187;-66
2023/04/26 06:09:11;;;;;;;10.82;7.95;;;10.20;97.20;;;;;;1747734;28;20210;-67
2023/04/26 06:10:03;;;;;;;8.73;7.93;;;10.30;97.20;;;;;;1747731;28;20198;-66
2023/04/26 06:10:54;;;;;;;9.50;8.50;;;10.30;97.20;;;;;;1747638;28;20225;-64
2023/04/26 06:11:45;;;;;;;11.07;7.90;;;10.40;97.20;;;;;;1747740;28;20209;-65
2023/04/26 06:12:36;;;;;;;9.18;7.70;;;10.40;97.20;;;;;;1747758;28;20209;-67
2023/04/26 06:13:28;;;;;;;14.33;8.20;;;10.50;97.20;;;;;;1747706;28;20197;-66
2023/04/26 06:14:18;;;;;;;13.82;8.27;;;10.60;97.20;;;;;;1748009;28;20203;-66
2023/04/26 06:15:11;;;;;;;9.80;8.40;;;10.70;97.20;;;;;;1749031;28;20198;-66
2023/04/26 06:16:02;;;;;;;11.80;7.82;;;10.70;97.20;;;;;;1749087;28;20203;-68
2023/04/26 06:16:54;;;;;;;9.90;8.20;;;10.80;97.20;;;;;;1748615;28;20271;-65
2023/04/26 06:17:46;;;;;;;10.65;8.60;;;10.80;97.20;;;;;;1748903;28;20541;-66
2023/04/26 06:18:37;;;;;;;9.82;8.13;;;10.90;97.20;;;;;;1748910;28;20214;-67
2023/04/26 06:19:29;;;;;;;14.90;8.65;;;11.00;97.20;;;;;;1748996;28;20210;-67
2023/04/26 06:20:21;;;;;;;9.52;7.97;;;11.00;97.20;;;;;;1748843;28;20653;-66
2023/04/26 06:21:11;;;;;;;9.23;7.72;;;11.00;97.20;;;;;;1748653;28;20206;-66
2023/04/26 06:22:03;;;;;;;13.87;8.67;;;11.10;97.20;;;;;;1748972;28;20202;-67
2023/04/26 06:22:54;;;;;;;9.68;8.25;;;11.10;97.20;;;;;;1748868;28;20205;-65
2023/04/26 06:23:45;;;;;;;9.13;7.97;;;11.10;97.20;;;;;;1748903;28;20202;-67
2023/04/26 06:24:36;;;;;;;11.35;8.05;;;11.10;97.20;;;;;;1748924;28;20217;-68
2023/04/26 06:25:28;;;;;;;11.13;8.50;;;11.10;97.20;;;;;;1748925;28;20702;-66
2023/04/26 06:26:18;;;;;;;12.48;8.98;;;11.10;97.20;;;;;;1748672;28;20669;-67
2023/04/26 06:27:10;;;;;;;8.87;7.97;;;11.10;97.20;;;;;;1748897;28;20594;-68
2023/04/26 06:28:02;;;;;;;9.75;7.78;;;11.10;97.20;;;;;;1748917;28;20199;-65
2023/04/26 06:28:54;;;;;;;9.18;7.85;;;11.10;97.20;;;;;;1748880;28;20194;-66
2023/04/26 06:29:45;;;;;;;11.73;8.20;;;11.10;97.20;;;;;;1748951;28;20221;-66
2023/04/26 06:30:36;;;;;;;9.63;7.90;;;11.10;97.20;;;;;;1748443;28;20807;-65
2023/04/26 06:31:27;;;;;;;9.82;7.40;;;11.10;97.20;;;;;;1748906;28;20198;-66
2023/04/26 06:32:19;;;;;;;13.67;7.20;;;11.10;97.20;;;;;;1749002;28;20199;-65
2023/04/26 06:33:11;;;;;;;10.82;7.00;;;11.10;97.20;;;;;;1748864;28;20214;-65
2023/04/26 06:34:03;;;;;;;8.98;6.85;;;11.20;97.20;;;;;;1748886;28;20206;-66
2023/04/26 06:34:53;;;;;;;8.65;6.80;;;11.20;97.20;;;;;;1748899;28;20213;-65
2023/04/26 06:35:45;;;;;;;10.07;7.30;;;11.20;97.20;;;;;;1749002;28;20286;-66
2023/04/26 06:36:36;;;;;;;8.68;6.35;;;11.30;97.20;;;;;;1748517;28;20558;-65
2023/04/26 06:37:28;;;;;;;8.93;6.87;;;11.30;97.20;;;;;;1748787;28;20263;-67
2023/04/26 06:38:19;;;;;;;11.05;5.63;;;11.40;97.20;;;;;;1748844;28;20237;-67
2023/04/26 06:39:11;;;;;;;7.55;6.03;;;11.40;97.20;;;;;;1748852;28;20281;-66
2023/04/26 06:40:02;;;;;;;9.20;6.95;;;11.50;97.20;;;;;;1748961;28;20206;-67
2023/04/26 06:40:54;;;;;;;12.60;8.07;;;11.50;97.20;;;;;;1748731;28;20218;-66
2023/04/26 06:41:44;;;;;;;8.45;7.03;;;11.60;97.20;;;;;;1748898;28;20206;-66
2023/04/26 06:42:36;;;;;;;8.90;7.67;;;11.60;97.20;;;;;;1748880;28;20257;-65
2023/04/26 06:43:27;;;;;;;13.10;8.35;;;11.70;97.20;;;;;;1748962;28;20735;-67
2023/04/26 06:44:19;;;;;;;11.40;7.20;;;11.70;97.20;;;;;;1748850;28;20601;-66
2023/04/26 06:45:11;;;;;;;8.43;7.35;;;11.70;97.20;;;;;;1748596;28;20218;-67
2023/04/26 06:46:03;;;;;;;8.00;7.20;;;11.70;97.20;;;;;;1748893;28;20199;-66
2023/04/26 06:46:54;;;;;;;10.43;7.25;;;11.80;97.20;;;;;;1748375;28;20206;-66
2023/04/26 06:47:45;;;;;;;10.17;7.03;;;11.80;97.20;;;;;;1748774;28;20206;-67
2023/04/26 06:48:37;;;;;;;8.23;7.32;;;11.90;97.20;;;;;;1748779;28;20441;-66
2023/04/26 06:49:29;;;;;;;8.23;7.35;;;11.90;97.20;;;;;;1748855;28;20575;-67
2023/04/26 06:50:20;;;;;;;8.85;6.90;;;11.90;97.20;;;;;;1748726;28;20205;-67
2023/04/26 06:51:12;;;;;;;10.40;6.80;;;12.00;97.20;;;;;;1748874;28;20195;-67
2023/04/26 06:52:03;;;;;;;7.93;6.35;;;12.00;97.20;;;;;;1748916;28;20460;-67
2023/04/26 06:52:55;;;;;;;8.32;6.68;;;12.00;97.20;;;;;;1748726;28;20222;-66
2023/04/26 06:53:47;;;;;;;9.10;6.88;;;12.10;97.20;;;;;;1748863;28;20264;-67
2023/04/26 06:54:38;;;;;;;7.82;6.05;;;12.10;97.20;;;;;;1748768;28;20604;-67
2023/04/26 06:55:29;;;;;;;9.70;6.93;;;12.10;97.20;;;;;;1748781;28;20524;-67
2023/04/26 06:56:22;;;;;;;8.05;6.20;;;12.20;97.20;;;;;;1748466;28;20201;-66
2023/04/26 06:57:13;;;;;;;9.68;5.68;;;12.20;97.20;;;;;;1748659;28;20213;-67
2023/04/26 06:58:04;;;;;;;6.87;5.40;;;12.20;97.20;;;;;;1748711;28;20202;-66
2023/04/26 06:59:00;;;;;;;9.82;5.60;;;12.20;97.20;;;;;;1748778;28;20199;-67
2023/04/26 06:59:51;;;;;;;5.57;4.25;;;12.20;97.20;;;;;;1748739;28;20614;-66
2023/04/26 07:00:42;;;;;;;5.55;4.15;;;12.20;97.20;;;;;;1748710;28;20222;-66
2023/04/26 07:01:34;;;;;;;4.57;3.50;;;12.20;97.20;;;;;;1748414;28;20198;-67
2023/04/26 07:02:25;;;;;;;5.65;3.70;;;12.20;97.20;;;;;;1748823;28;20202;-68
2023/04/26 07:03:17;;;;;;;4.77;3.37;;;12.20;97.20;;;;;;1748695;28;20200;-66
2023/04/26 07:04:09;;;;;;;5.18;3.03;;;12.20;97.20;;;;;;1747036;28;20202;-70
2023/04/26 07:05:01;;;;;;;5.75;3.50;;;12.20;97.20;;;;;;1744524;28;20191;-70
2023/04/26 07:05:53;;;;;;;5.50;3.38;;;12.20;97.20;;;;;;1745809;28;20204;-69
2023/04/26 07:06:45;;;;;;;8.32;3.40;;;12.20;97.20;;;;;;1740226;28;20647;-67
2023/04/26 07:07:36;;;;;;;4.30;3.13;;;12.20;97.20;;;;;;1741193;28;20264;-68
2023/04/26 07:08:27;;;;;;;3.43;2.83;;;12.20;97.20;;;;;;1741260;28;20195;-68
2023/04/26 07:09:18;;;;;;;4.25;3.08;;;12.30;97.20;;;;;;1741145;28;20195;-67
2023/04/26 07:10:10;;;;;;;6.90;3.40;;;12.30;97.20;;;;;;1744655;28;20201;-67
2023/04/26 07:11:02;;;;;;;6.88;4.00;;;12.30;97.20;;;;;;1744449;28;20203;-67
2023/04/26 07:11:54;;;;;;;4.07;3.10;;;12.30;97.20;;;;;;1748318;28;20680;-68
2023/04/26 07:12:45;;;;;;;7.80;3.25;;;12.30;97.20;;;;;;1748489;28;20207;-68
2023/04/26 07:13:36;;;;;;;3.50;3.00;;;12.30;97.20;;;;;;1748201;28;20285;-68
2023/04/26 07:14:27;;;;;;;4.22;3.00;;;12.30;97.20;;;;;;1748657;28;20441;-66
2023/04/26 07:15:19;;;;;;;3.63;2.70;;;12.30;97.20;;;;;;1748142;28;20686;-67
2023/04/26 07:16:10;;;;;;;3.50;2.50;;;12.30;97.20;;;;;;1747913;28;20206;-73
2023/04/26 07:17:01;;;;;;;3.50;2.93;;;12.30;97.20;;;;;;1747759;28;20198;-68
2023/04/26 07:17:52;;;;;;;3.35;3.05;;;12.40;97.20;;;;;;1748067;28;20210;-68
2023/04/26 07:18:44;;;;;;;6.00;2.90;;;12.40;97.20;;;;;;1748063;28;20217;-66
2023/04/26 07:19:36;;;;;;;4.93;3.50;;;12.40;97.20;;;;;;1748518;28;20588;-67
2023/04/26 07:20:28;;;;;;;6.18;3.95;;;12.50;97.20;;;;;;1748489;28;20682;-68
2023/04/26 07:21:18;;;;;;;4.15;3.45;;;12.50;97.20;;;;;;1747838;28;20209;-67
2023/04/26 07:22:10;;;;;;;7.03;4.43;;;12.60;97.20;;;;;;1748277;28;20202;-68
2023/04/26 07:23:02;;;;;;;7.68;4.30;;;12.60;97.20;;;;;;1748516;28;20241;-67
2023/04/26 07:23:54;;;;;;;6.32;3.90;;;12.70;97.20;;;;;;1748575;28;20206;-66
2023/04/26 07:24:46;;;;;;;5.28;4.30;;;12.80;97.20;;;;;;1748557;28;20214;-67
2023/04/26 07:25:36;;;;;;;5.18;4.65;;;12.80;97.20;;;;;;1748553;28;20198;-67
2023/04/26 07:26:28;;;;;;;9.93;5.70;;;12.90;97.20;;;;;;1747669;28;20198;-69
2023/04/26 07:27:20;;;;;;;11.23;5.60;;;13.00;97.20;;;;;;1739620;28;20218;-66
2023/04/26 07:28:11;;;;;;;6.95;5.00;;;13.10;97.20;;;;;;1741179;28;20203;-65
2023/04/26 07:29:03;;;;;;;5.50;5.00;;;13.30;97.20;;;;;;1741636;28;20209;-65
2023/04/26 07:29:54;;;;;;;7.28;4.80;;;13.40;97.20;;;;;;1741388;28;20207;-65
2023/04/26 07:30:46;;;;;;;8.10;5.53;;;13.50;97.20;;;;;;1743087;28;20238;-65
2023/04/26 07:31:37;;;;;;;8.68;5.20;;;13.60;97.20;;;;;;1741858;28;20211;-67
2023/04/26 07:32:29;;;;;;;6.83;5.03;;;13.70;97.20;;;;;;1744266;28;20195;-65
2023/04/26 07:33:19;;;;;;;5.70;4.53;;;13.80;97.20;;;;;;1741567;28;20203;-65
2023/04/26 07:34:11;;;;;;;7.03;5.50;;;14.00;97.20;;;;;;1744190;28;20281;-66
2023/04/26 07:35:06;;;;;;;5.65;4.10;;;14.00;97.20;;;;;;1741803;28;20203;-65
2023/04/26 07:36:00;;;;;;;7.38;5.15;;;14.10;97.20;;;;;;1742260;28;20240;-67
2023/04/26 07:36:51;;;;;;;5.90;4.35;;;14.20;97.20;;;;;;1739948;28;20218;-67
2023/04/26 07:37:43;;;;;;;5.83;4.67;;;14.30;97.20;;;;;;1742726;28;20202;-66
2023/04/26 07:38:34;;;;;;;9.70;5.20;;;14.30;97.20;;;;;;1741468;28;20482;-65
2023/04/26 07:39:26;;;;;;;5.33;4.77;;;14.40;97.20;;;;;;1741654;28;20203;-67
2023/04/26 07:40:17;;;;;;;6.00;4.30;;;14.50;97.20;;;;;;1741426;28;20202;-65
2023/04/26 07:41:09;;;;;;;6.75;4.30;;;14.50;97.20;;;;;;1741772;28;20663;-64
2023/04/26 07:42:00;;;;;;;5.82;4.78;;;14.60;97.20;;;;;;1744060;28;20234;-65
2023/04/26 07:42:52;;;;;;;6.60;4.10;;;14.60;97.20;;;;;;1742794;28;20202;-64
2023/04/26 07:43:43;;;;;;;5.82;3.90;;;14.60;97.20;;;;;;1742658;28;20195;-65
2023/04/26 07:44:35;;;;;;;6.03;4.20;;;14.60;97.20;;;;;;1741445;28;20206;-65
2023/04/26 07:45:26;;;;;;;5.55;3.78;;;14.60;97.20;;;;;;1741521;28;20238;-66
2023/04/26 07:46:17;;;;;;;6.47;4.50;;;14.60;97.20;;;;;;1740757;28;20203;-65
2023/04/26 07:47:12;;;;;;;6.18;4.50;;;14.60;97.20;;;;;;1741344;28;20214;-65
2023/04/26 07:48:04;;;;;;;8.88;4.68;;;14.60;97.20;;;;;;1741074;28;20245;-65
2023/04/26 07:48:55;;;;;;;6.40;4.32;;;14.60;97.20;;;;;;1741253;28;20586;-66
2023/04/26 07:49:47;;;;;;;5.83;4.63;;;14.60;97.20;;;;;;1741485;28;20227;-65
2023/04/26 07:50:39;;;;;;;7.57;5.15;;;14.50;97.20;;;;;;1746047;28;20214;-67
2023/04/26 07:51:30;;;;;;;5.82;4.30;;;14.40;97.20;;;;;;1746889;28;20677;-66
2023/04/26 07:52:21;;;;;;;6.75;4.50;;;14.30;97.20;;;;;;1746011;28;20198;-67
2023/04/26 07:53:13;;;;;;;7.50;4.97;;;14.30;97.20;;;;;;1744165;28;20202;-66
2023/04/26 07:54:04;;;;;;;5.35;4.85;;;14.30;97.20;;;;;;1748025;28;20226;-66
2023/04/26 07:54:55;;;;;;;5.80;4.10;;;14.30;97.20;;;;;;1747843;28;20208;-65
2023/04/26 07:55:46;;;;;;;6.60;4.43;;;14.40;97.20;;;;;;1748212;28;20206;-65
2023/04/26 07:56:38;;;;;;;5.90;4.70;;;14.50;97.20;;;;;;1747547;28;20198;-66
2023/04/26 07:57:29;;;;;;;4.75;4.25;;;14.50;97.20;;;;;;1748249;28;20230;-65
2023/04/26 07:58:21;;;;;;;6.23;3.93;;;14.60;97.20;;;;;;1747908;28;20200;-66
2023/04/26 07:59:11;;;;;;;6.60;3.95;;;14.60;97.20;;;;;;1748275;28;20218;-67
2023/04/26 08:00:05;;;;;;;6.17;4.23;;;14.70;97.20;;;;;;1747999;28;20293;-66
2023/04/26 08:00:56;;;;;;;7.72;5.30;;;14.80;97.20;;;;;;1748007;28;20230;-66
2023/04/26 08:01:47;;;;;;;7.00;4.87;;;14.80;97.20;;;;;;1746800;28;20195;-64
2023/04/26 08:02:38;;;;;;;9.95;4.97;;;14.90;97.20;;;;;;1741647;28;20195;-65
2023/04/26 08:03:31;;;;;;;7.10;5.20;;;14.80;97.20;;;;;;1743892;28;20199;-65
2023/04/26 08:04:31;;;;;;;5.70;5.10;;;14.80;97.20;;;;;;1741286;28;20804;-65
2023/04/26 08:05:22;;;;;;;7.07;4.60;;;14.70;97.20;;;;;;1741131;28;20179;-66
2023/04/26 08:06:15;;;;;;;7.20;5.38;;;14.70;97.20;;;;;;1740442;28;20206;-66
2023/04/26 08:07:07;;;;;;;8.07;5.10;;;14.60;97.20;;;;;;1741192;28;20336;-66
2023/04/26 08:07:59;;;;;;;6.50;4.75;;;14.60;97.20;;;;;;1741275;28;20207;-67
2023/04/26 08:08:52;;;;;;;8.98;5.35;;;14.50;97.20;;;;;;1741426;28;20256;-66
2023/04/26 08:09:43;;;;;;;5.18;4.72;;;14.40;97.20;;;;;;1744889;28;20559;-65
2023/04/26 08:10:35;;;;;;;6.83;4.53;;;14.40;97.20;;;;;;1748040;28;20325;-66
2023/04/26 08:11:26;;;;;;;9.60;5.95;;;14.30;97.20;;;;;;1747087;28;20452;-68
2023/04/26 08:12:17;;;;;;;7.40;5.23;;;14.30;97.20;;;;;;1744636;28;20305;-65
2023/04/26 08:13:08;;;;;;;8.27;5.68;;;14.30;97.20;;;;;;1744070;28;20210;-65
2023/04/26 08:14:00;;;;;;;6.30;5.03;;;14.30;97.20;;;;;;1748130;28;20205;-63
2023/04/26 08:14:51;;;;;;;9.75;4.95;;;14.30;97.20;;;;;;1748162;28;20199;-65
2023/04/26 08:15:42;;;;;;;8.00;5.20;;;14.30;97.20;;;;;;1748198;28;20202;-64
2023/04/26 08:16:33;;;;;;;7.00;5.50;;;14.30;97.20;;;;;;1747353;28;20238;-65
2023/04/26 08:17:25;;;;;;;7.50;5.50;;;14.40;97.20;;;;;;1747667;28;20216;-63
2023/04/26 08:18:15;;;;;;;5.72;5.22;;;14.50;97.20;;;;;;1747826;28;20207;-64
2023/04/26 08:19:07;;;;;;;7.03;5.47;;;14.60;97.20;;;;;;1748144;28;20238;-64
2023/04/26 08:19:58;;;;;;;10.52;5.00;;;14.70;97.20;;;;;;1748106;28;20195;-64
2023/04/26 08:20:50;;;;;;;6.33;5.13;;;14.60;97.20;;;;;;1748124;28;20226;-65
2023/04/26 08:21:42;;;;;;;7.72;5.20;;;14.60;97.20;;;;;;1745169;28;20443;-65
2023/04/26 08:22:34;;;;;;;9.05;5.13;;;14.60;97.20;;;;;;1746904;28;20229;-67
2023/04/26 08:23:24;;;;;;;5.60;4.35;;;14.60;97.20;;;;;;1744004;28;20693;-65
2023/04/26 08:24:16;;;;;;;10.10;5.40;;;14.60;97.20;;;;;;1747850;28;20676;-64
2023/04/26 08:25:09;;;;;;;8.60;5.03;;;14.70;97.20;;;;;;1748084;28;20213;-64
2023/04/26 08:26:01;;;;;;;7.35;4.93;;;14.80;97.20;;;;;;1748043;28;20198;-65
2023/04/26 08:26:52;;;;;;;6.20;4.55;;;14.80;97.20;;;;;;1746795;28;20201;-64
2023/04/26 08:27:44;;;;;;;8.87;5.10;;;14.80;97.20;;;;;;1748144;28;20209;-64
2023/04/26 08:28:35;;;;;;;6.43;5.40;;;14.90;97.20;;;;;;1748014;28;20202;-65
2023/04/26 08:29:27;;;;;;;5.97;5.10;;;15.10;97.20;;;;;;1747827;28;20661;-65
2023/04/26 08:30:18;;;;;;;7.97;5.70;;;15.30;97.20;;;;;;1747624;28;20813;-64
2023/04/26 08:31:10;;;;;;;11.45;6.22;;;15.50;97.20;;;;;;1748178;28;20183;-65
2023/04/26 08:32:00;;;;;;;7.10;5.63;;;15.70;97.20;;;;;;1745311;28;20201;-66
2023/04/26 08:32:52;;;;;;;9.40;5.10;;;15.90;97.20;;;;;;1742685;28;20658;-65
2023/04/26 08:33:43;;;;;;;5.55;4.90;;;16.10;97.20;;;;;;1746792;28;20203;-66
2023/04/26 08:34:35;;;;;;;8.10;5.60;;;16.30;97.20;;;;;;1747951;28;20212;-65
2023/04/26 08:35:25;;;;;;;8.38;5.03;;;16.50;97.20;;;;;;1747755;28;20199;-65
2023/04/26 08:36:17;;;;;;;7.47;5.10;;;16.70;97.20;;;;;;1747006;28;20226;-65
2023/04/26 08:37:10;;;;;;;6.30;5.38;;;16.90;97.20;;;;;;1747886;28;20444;-65
2023/04/26 08:38:02;;;;;;;6.15;5.10;;;17.00;97.20;;;;;;1747244;28;20623;-64
2023/04/26 08:38:53;;;;;;;8.90;4.90;;;17.10;97.20;;;;;;1747802;28;20233;-64
2023/04/26 08:39:45;;;;;;;6.97;5.10;;;17.20;97.20;;;;;;1748105;28;20654;-65
2023/04/26 08:40:36;;;;;;;8.07;4.55;;;17.30;97.20;;;;;;1747259;28;20225;-66
2023/04/26 08:41:29;;;;;;;7.10;5.22;;;17.40;97.20;;;;;;1747406;28;20205;-65
2023/04/26 08:42:23;;;;;;;8.43;4.93;;;17.40;97.20;;;;;;1743180;28;20211;-65
2023/04/26 08:43:16;;;;;;;8.00;4.97;;;17.40;97.20;;;;;;1743612;28;20195;-65
2023/04/26 08:44:08;;;;;;;7.38;5.07;;;17.40;97.20;;;;;;1741038;28;20202;-64
2023/04/26 08:45:02;;;;;;;7.65;5.57;;;17.30;97.20;;;;;;1740990;28;20206;-65
2023/04/26 08:45:53;;;;;;;7.20;5.03;;;17.30;97.20;;;;;;1741137;28;20256;-65
2023/04/26 08:46:53;;;;;;;7.70;5.22;;;17.20;97.20;;;;;;1740014;28;20206;-66
2023/04/26 08:47:47;;;;;;;7.10;5.15;;;17.20;97.20;;;;;;1740737;28;20207;-65
2023/04/26 08:48:40;;;;;;;8.52;5.10;;;17.20;97.20;;;;;;1740964;28;20207;-64
2023/04/26 08:49:39;;;;;;;7.00;5.30;;;17.20;97.20;;;;;;1741050;28;20206;-66
2023/04/26 08:50:33;;;;;;;7.25;5.40;;;17.20;97.20;;;;;;1740961;28;20227;-65
2023/04/26 08:51:26;;;;;;;7.60;5.05;;;17.10;97.20;;;;;;1741047;28;20238;-64
2023/04/26 08:52:22;;;;;;;5.80;5.00;;;17.10;97.20;;;;;;1743205;28;20195;-64
2023/04/26 08:53:14;;;;;;;8.05;5.22;;;17.10;97.20;;;;;;1743447;28;20215;-65
2023/04/26 08:54:07;;;;;;;8.40;5.30;;;17.10;97.20;;;;;;1740956;28;20199;-65
2023/04/26 08:54:59;;;;;;;6.10;5.05;;;17.20;97.20;;;;;;1746062;28;20194;-64
2023/04/26 08:55:51;;;;;;;5.13;4.45;;;17.20;97.20;;;;;;1747935;28;20316;-65
2023/04/26 08:56:43;;;;;;;5.93;5.15;;;17.30;97.20;;;;;;1747094;28;20239;-65
2023/04/26 08:57:35;;;;;;;5.43;4.93;;;17.30;97.20;;;;;;1747796;28;20615;-65
2023/04/26 08:58:27;;;;;;;9.50;5.03;;;17.20;97.20;;;;;;1747673;28;20222;-65
2023/04/26 08:59:19;;;;;;;7.28;5.85;;;17.10;97.20;;;;;;1747371;28;20225;-65
2023/04/26 09:00:13;;;;;;;6.20;5.18;;;17.00;97.20;;;;;;1747770;28;20293;-65
2023/04/26 09:01:04;;;;;;;5.55;4.90;;;16.90;97.20;;;;;;1747822;28;20256;-66
2023/04/26 09:01:57;;;;;;;8.07;5.40;;;16.70;97.20;;;;;;1743593;28;20202;-64
2023/04/26 09:02:49;;;;;;;8.30;5.20;;;16.70;97.20;;;;;;1746188;28;20544;-64
2023/04/26 09:03:41;;;;;;;6.07;5.15;;;16.60;97.20;;;;;;1745958;28;20256;-65
2023/04/26 09:04:32;;;;;;;7.47;5.05;;;16.50;97.20;;;;;;1747554;28;20217;-65
2023/04/26 09:05:25;;;;;;;5.60;5.10;;;16.40;97.20;;;;;;1747673;28;20277;-64
2023/04/26 09:06:17;;;;;;;9.88;5.45;;;16.30;97.20;;;;;;1747105;28;20556;-64
2023/04/26 09:07:13;;;;;;;8.98;5.75;;;16.10;97.20;;;;;;1747731;28;20198;-66
2023/04/26 09:08:06;;;;;;;8.07;5.30;;;16.00;97.20;;;;;;1747854;28;20198;-65
2023/04/26 09:08:59;;;;;;;8.15;5.22;;;15.90;97.20;;;;;;1747888;28;20210;-65
2023/04/26 09:09:50;;;;;;;4.78;4.32;;;15.80;97.20;;;;;;1748044;28;20784;-66
2023/04/26 09:10:42;;;;;;;6.35;5.15;;;15.60;97.20;;;;;;1747428;28;20219;-65
2023/04/26 09:11:51;;;;;;;8.27;5.25;;;15.50;97.20;;;;;;1745802;28;20211;-65
2023/04/26 09:12:43;;;;;;;7.18;6.22;;;15.40;97.20;;;;;;1740635;28;20211;-65
2023/04/26 09:13:33;;;;;;;6.60;4.72;;;15.30;97.20;;;;;;1745156;28;20237;-64
2023/04/26 09:14:26;;;;;;;7.90;5.13;;;15.20;97.20;;;;;;1747419;28;20305;-65
2023/04/26 09:15:17;;;;;;;6.88;5.15;;;15.20;97.20;;;;;;1747791;28;20206;-65
2023/04/26 09:16:08;;;;;;;7.60;5.73;;;15.10;97.20;;;;;;1747431;28;20252;-65
2023/04/26 09:16:59;;;;;;;6.25;5.18;;;15.10;97.20;;;;;;1746678;28;20452;-65
2023/04/26 09:17:51;;;;;;;7.00;4.60;;;15.10;97.20;;;;;;1747786;28;20226;-65
2023/04/26 09:18:50;;;;;;;9.35;5.22;;;15.10;97.20;;;;;;1747835;28;20213;-67
2023/04/26 09:19:42;;;;;;;8.05;5.15;;;15.10;97.20;;;;;;1747794;28;20550;-64
2023/04/26 09:20:32;;;;;;;7.45;5.03;;;15.10;97.20;;;;;;1747730;28;20218;-65
2023/04/26 09:21:25;;;;;;;7.40;4.43;;;15.10;97.20;;;;;;1747378;28;20198;-65
2023/04/26 09:22:27;;;;;;;5.45;4.95;;;15.20;97.20;;;;;;1742722;28;20206;-65
2023/04/26 09:23:20;;;;;;;6.63;4.60;;;15.20;97.20;;;;;;1744317;28;20183;-64
2023/04/26 09:24:11;;;;;;;9.27;5.00;;;15.20;97.20;;;;;;1747854;28;20206;-63
2023/04/26 09:25:06;;;;;;;8.05;5.00;;;15.30;97.20;;;;;;1747760;28;20271;-64
2023/04/26 09:26:15;;;;;;;7.63;5.32;;;15.30;97.20;;;;;;1747766;28;20218;-68
2023/04/26 09:27:06;;;;;;;5.72;5.03;;;15.30;97.20;;;;;;1747723;28;20187;-64
2023/04/26 09:27:58;;;;;;;6.93;5.17;;;15.30;97.20;;;;;;1747557;28;20201;-68
2023/04/26 09:28:49;;;;;;;6.93;4.75;;;15.20;97.20;;;;;;1747105;28;20194;-65
2023/04/26 09:29:41;;;;;;;7.82;5.65;;;15.20;97.20;;;;;;1747825;28;20229;-65